createdAt,value
2019-04-01T00:00:55.351Z,12.10
2019-04-01T00:03:26.412Z,12.00
2019-04-01T00:05:57.131Z,11.07
2019-04-01T00:08:29.040Z,11.47
2019-04-01T00:10:59.741Z,13.60
2019-04-01T00:13:29.923Z,13.80
2019-04-01T00:15:59.460Z,12.00
2019-04-01T00:18:28.759Z,12.93
2019-04-01T00:21:18.820Z,13.80
2019-04-01T00:23:48.661Z,13.43
2019-04-01T00:26:18.880Z,11.67
2019-04-01T00:28:49.020Z,12.27
2019-04-01T00:31:21.481Z,13.73
2019-04-01T00:33:51.340Z,13.37
2019-04-01T00:36:22.166Z,13.07
2019-04-01T00:38:53.003Z,13.97
2019-04-01T00:41:22.981Z,12.80
2019-04-01T00:43:53.660Z,13.40
2019-04-01T00:46:24.721Z,11.20
2019-04-01T00:48:55.279Z,12.03
2019-04-01T00:51:25.721Z,12.80
2019-04-01T00:53:55.780Z,11.97
2019-04-01T00:56:25.901Z,12.73
2019-04-01T00:58:56.801Z,13.20
2019-04-01T01:01:27.006Z,11.13
2019-04-01T01:03:57.786Z,12.83
2019-04-01T01:06:28.125Z,12.77
2019-04-01T01:08:57.906Z,13.57
2019-04-01T01:11:28.106Z,13.00
2019-04-01T01:13:57.611Z,11.67
2019-04-01T01:16:27.986Z,13.23
2019-04-01T01:18:57.794Z,13.03
2019-04-01T01:21:28.526Z,11.93
2019-04-01T01:23:58.846Z,12.37
2019-04-01T01:26:28.672Z,10.67
2019-04-01T01:28:58.844Z,12.23
2019-04-01T01:31:30.184Z,11.30
2019-04-01T01:34:00.263Z,11.13
2019-04-01T01:36:30.023Z,11.30
2019-04-01T01:39:00.160Z,10.20
2019-04-01T01:41:30.120Z,10.33
2019-04-01T01:43:59.740Z,12.43
2019-04-01T01:46:29.240Z,11.43
2019-04-01T01:48:59.420Z,11.63
2019-04-01T01:51:32.763Z,10.03
2019-04-01T01:54:02.641Z,12.77
2019-04-01T01:56:35.786Z,13.97
2019-04-01T01:59:05.681Z,12.97
2019-04-01T02:01:36.027Z,11.50
2019-04-01T02:04:05.891Z,11.53
2019-04-01T02:06:36.306Z,11.47
2019-04-01T02:09:07.867Z,10.23
2019-04-01T02:11:37.747Z,11.97
2019-04-01T02:14:07.968Z,11.70
2019-04-01T02:16:37.667Z,16.70
2019-04-01T02:19:07.374Z,12.80
2019-04-01T02:21:37.787Z,12.20
2019-04-01T02:24:08.087Z,13.70
2019-04-01T02:26:38.545Z,12.63
2019-04-01T02:29:08.208Z,12.00
2019-04-01T02:31:38.537Z,13.30
2019-04-01T02:34:08.616Z,12.00
2019-04-01T02:36:38.931Z,12.37
2019-04-01T02:39:10.381Z,13.33
2019-04-01T02:41:41.123Z,13.83
2019-04-01T02:44:10.741Z,10.90
2019-04-01T02:46:40.902Z,12.57
2019-04-01T02:49:11.912Z,13.07
2019-04-01T02:51:41.761Z,12.37
2019-04-01T02:54:11.960Z,13.90
2019-04-01T02:56:42.864Z,12.47
2019-04-01T02:59:13.086Z,13.70
2019-04-01T03:01:43.265Z,12.37
2019-04-01T03:04:14.584Z,13.20
2019-04-01T03:06:44.662Z,12.97
2019-04-01T03:09:14.565Z,11.70
2019-04-01T03:11:47.897Z,10.93
2019-04-01T03:14:17.824Z,14.27
2019-04-01T03:16:48.604Z,15.70
2019-04-01T03:19:18.063Z,15.27
2019-04-01T03:21:47.563Z,11.67
2019-04-01T03:24:16.752Z,11.33
2019-04-01T03:26:46.261Z,14.23
2019-04-01T03:29:15.502Z,14.13
2019-04-01T03:31:44.923Z,12.80
2019-04-01T03:34:14.196Z,14.33
2019-04-01T03:36:47.902Z,13.57
2019-04-01T03:39:17.760Z,12.13
2019-04-01T03:41:48.480Z,13.47
2019-04-01T03:44:18.000Z,12.03
2019-04-01T03:46:48.505Z,12.57
2019-04-01T03:49:17.960Z,13.03
2019-04-01T03:51:47.521Z,15.43
2019-04-01T03:54:17.706Z,12.40
2019-04-01T03:56:47.540Z,12.07
2019-04-01T03:59:17.740Z,12.27
2019-04-01T04:01:46.924Z,13.43
2019-04-01T04:04:16.503Z,14.33
2019-04-01T04:06:46.045Z,12.07
2019-04-01T04:09:15.866Z,12.73
2019-04-01T04:11:45.327Z,13.57
2019-04-01T04:14:15.387Z,11.60
2019-04-01T04:16:45.128Z,14.67
2019-04-01T04:19:14.930Z,13.07
2019-04-01T04:21:44.868Z,13.80
2019-04-01T04:24:14.529Z,13.17
2019-04-01T04:26:44.145Z,13.40
2019-04-01T04:29:13.625Z,14.27
2019-04-01T04:31:43.206Z,14.03
2019-04-01T04:34:12.744Z,13.17
2019-04-01T04:36:42.805Z,12.57
2019-04-01T04:39:12.545Z,11.70
2019-04-01T04:41:42.364Z,11.13
2019-04-01T04:44:12.373Z,12.27
2019-04-01T04:46:41.906Z,12.53
2019-04-01T04:49:11.563Z,11.73
2019-04-01T04:51:41.481Z,13.47
2019-04-01T04:54:11.441Z,12.00
2019-04-01T04:56:40.902Z,13.03
2019-04-01T04:59:12.445Z,13.40
2019-04-01T05:01:42.580Z,12.90
2019-04-01T05:04:12.086Z,14.60
2019-04-01T05:06:41.922Z,12.40
2019-04-01T05:09:11.020Z,12.80
2019-04-01T05:11:42.709Z,14.80
2019-04-01T05:14:14.609Z,12.47
2019-04-01T05:16:44.508Z,14.20
2019-04-01T05:19:14.224Z,16.10
2019-04-01T05:21:44.330Z,13.60
2019-04-01T05:24:15.241Z,14.53
2019-04-01T05:26:50.389Z,16.30
2019-04-01T05:29:23.829Z,15.47
2019-04-01T05:31:55.889Z,15.67
2019-04-01T05:34:27.789Z,14.60
2019-04-01T05:36:58.290Z,18.83
2019-04-01T05:39:27.652Z,13.70
2019-04-01T05:41:57.432Z,13.17
2019-04-01T05:44:27.709Z,15.40
2019-04-01T05:46:57.670Z,14.73
2019-04-01T05:49:28.295Z,15.90
2019-04-01T05:51:57.728Z,15.33
2019-04-01T05:54:27.401Z,14.53
2019-04-01T05:56:57.182Z,18.43
2019-04-01T05:59:27.800Z,14.53
2019-04-01T06:01:57.564Z,15.03
2019-04-01T06:04:27.545Z,15.10
2019-04-01T06:06:56.863Z,14.13
2019-04-01T06:09:27.004Z,16.00
2019-04-01T06:11:57.364Z,15.67
2019-04-01T06:14:26.943Z,16.57
2019-04-01T06:16:56.383Z,19.70
2019-04-01T06:19:26.624Z,18.47
2019-04-01T06:21:56.465Z,16.40
2019-04-01T06:24:26.120Z,16.80
2019-04-01T06:26:56.302Z,18.27
2019-04-01T06:29:29.239Z,17.27
2019-04-01T06:31:59.639Z,16.87
2019-04-01T06:34:30.100Z,19.17
2019-04-01T06:36:59.940Z,18.83
2019-04-01T06:39:29.339Z,19.20
2019-04-01T06:41:59.139Z,18.97
2019-04-01T06:44:31.920Z,14.83
2019-04-01T06:47:02.319Z,16.70
2019-04-01T06:49:32.762Z,18.20
2019-04-01T06:52:02.622Z,15.20
2019-04-01T06:54:33.490Z,17.60
2019-04-01T06:57:03.702Z,19.57
2019-04-01T06:59:34.080Z,21.43
2019-04-01T07:02:04.326Z,14.37
2019-04-01T07:04:34.014Z,15.20
2019-04-01T07:07:17.887Z,16.30
2019-04-01T07:09:35.920Z,14.50
2019-04-01T07:12:05.679Z,15.97
2019-04-01T07:14:36.119Z,16.60
2019-04-01T07:17:06.209Z,13.80
2019-04-01T07:19:36.445Z,15.73
2019-04-01T07:22:05.725Z,13.97
2019-04-01T07:24:34.993Z,15.50
2019-04-01T07:27:07.814Z,15.10
2019-04-01T07:29:35.916Z,15.60
2019-04-01T07:32:05.951Z,16.63
2019-04-01T07:34:35.200Z,17.43
2019-04-01T07:37:04.940Z,14.67
2019-04-01T07:39:34.703Z,16.17
2019-04-01T07:42:04.679Z,15.00
2019-04-01T07:44:43.786Z,19.17
2019-04-01T07:47:13.701Z,15.43
2019-04-01T07:49:43.019Z,21.97
2019-04-01T07:52:12.828Z,19.50
2019-04-01T07:54:42.360Z,15.83
2019-04-01T07:57:12.140Z,14.73
2019-04-01T07:59:41.442Z,15.40
2019-04-01T08:02:11.059Z,15.73
2019-04-01T08:04:40.342Z,17.43
2019-04-01T08:07:13.093Z,16.00
2019-04-01T08:09:40.800Z,16.63
2019-04-01T08:12:10.182Z,16.07
2019-04-01T08:14:39.537Z,17.63
2019-04-01T08:17:09.160Z,16.63
2019-04-01T08:19:38.843Z,17.50
2019-04-01T08:22:08.300Z,15.20
2019-04-01T08:24:37.680Z,17.77
2019-04-01T08:27:07.463Z,15.83
2019-04-01T08:29:36.897Z,18.10
2019-04-01T08:32:06.240Z,18.17
2019-04-01T08:34:35.642Z,17.83
2019-04-01T08:37:05.002Z,19.57
2019-04-01T08:39:34.363Z,20.90
2019-04-01T08:42:06.960Z,21.13
2019-04-01T08:44:36.379Z,20.17
2019-04-01T08:47:05.782Z,23.20
2019-04-01T08:49:35.238Z,25.23
2019-04-01T08:52:04.980Z,20.70
2019-04-01T08:54:37.299Z,21.87
2019-04-01T08:57:06.542Z,22.53
2019-04-01T08:59:36.203Z,23.20
2019-04-01T09:02:17.658Z,22.67
2019-04-01T09:04:38.185Z,24.80
2019-04-01T09:07:07.854Z,24.43
2019-04-01T09:09:38.826Z,22.83
2019-04-01T09:12:10.455Z,21.13
2019-04-01T09:14:42.559Z,22.60
2019-04-01T09:17:13.911Z,19.57
2019-04-01T09:19:45.224Z,21.60
2019-04-01T09:22:15.261Z,24.03
2019-04-01T09:24:44.659Z,21.17
2019-04-01T09:27:16.707Z,20.90
2019-04-01T09:29:47.740Z,17.77
2019-04-01T09:32:18.659Z,21.17
2019-04-01T09:34:48.922Z,19.70
2019-04-01T09:37:20.040Z,18.87
2019-04-01T09:39:49.639Z,18.27
2019-04-01T09:42:22.000Z,20.37
2019-04-01T09:44:51.860Z,20.60
2019-04-01T09:47:25.159Z,20.23
2019-04-01T09:49:54.840Z,21.07
2019-04-01T09:52:24.640Z,22.33
2019-04-01T09:54:54.360Z,21.17
2019-04-01T09:57:24.059Z,21.60
2019-04-01T09:59:54.020Z,20.07
2019-04-01T10:02:31.781Z,20.30
2019-04-01T10:04:55.560Z,19.83
2019-04-01T10:07:25.342Z,21.47
2019-04-01T10:09:54.521Z,21.87
2019-04-01T10:12:24.319Z,20.50
2019-04-01T10:14:53.643Z,24.17
2019-04-01T10:17:23.621Z,18.73
2019-04-01T10:19:53.060Z,21.47
2019-04-01T10:22:23.522Z,20.33
2019-04-01T10:24:53.940Z,20.43
2019-04-01T10:27:23.459Z,22.10
2019-04-01T10:29:52.795Z,21.87
2019-04-01T10:32:22.620Z,19.10
2019-04-01T10:34:53.279Z,19.50
2019-04-01T10:37:22.861Z,21.23
2019-04-01T10:39:52.260Z,21.33
2019-04-01T10:42:22.580Z,20.10
2019-04-01T10:44:52.240Z,22.13
2019-04-01T10:47:21.840Z,19.47
2019-04-01T10:49:51.332Z,18.80
2019-04-01T10:52:21.192Z,17.73
2019-04-01T10:54:50.554Z,20.67
2019-04-01T10:57:20.054Z,19.10
2019-04-01T10:59:49.738Z,19.90
2019-04-01T11:02:19.531Z,19.17
2019-04-01T11:04:48.714Z,19.87
2019-04-01T11:07:18.449Z,20.03
2019-04-01T11:09:48.531Z,21.10
2019-04-01T11:12:17.887Z,19.37
2019-04-01T11:14:47.801Z,18.10
2019-04-01T11:17:17.307Z,19.10
2019-04-01T11:19:46.467Z,19.37
2019-04-01T11:22:15.706Z,17.27
2019-04-01T11:24:46.091Z,17.67
2019-04-01T11:27:15.586Z,17.50
2019-04-01T11:29:44.900Z,17.00
2019-04-01T11:32:14.419Z,19.30
2019-04-01T11:34:44.107Z,17.60
2019-04-01T11:37:13.390Z,18.97
2019-04-01T11:39:42.859Z,15.90
2019-04-01T11:42:15.029Z,17.33
2019-04-01T11:44:45.461Z,16.97
2019-04-01T11:47:15.240Z,20.53
2019-04-01T11:49:44.631Z,18.70
2019-04-01T11:52:15.512Z,18.40
2019-04-01T11:54:46.022Z,18.07
2019-04-01T11:57:15.530Z,16.97
2019-04-01T11:59:44.723Z,17.20
2019-04-01T12:02:14.045Z,18.07
2019-04-01T12:04:46.121Z,18.27
2019-04-01T12:07:15.423Z,17.53
2019-04-01T12:09:44.839Z,16.40
2019-04-01T12:12:23.453Z,16.97
2019-04-01T12:14:45.323Z,17.17
2019-04-01T12:17:14.364Z,16.43
2019-04-01T12:19:43.644Z,16.57
2019-04-01T12:22:13.384Z,16.20
2019-04-01T12:24:42.823Z,17.97
2019-04-01T12:27:12.672Z,17.23
2019-04-01T12:29:42.364Z,18.00
2019-04-01T12:32:12.217Z,17.20
2019-04-01T12:34:42.317Z,17.47
2019-04-01T12:37:11.604Z,17.43
2019-04-01T12:39:41.238Z,17.70
2019-04-01T12:42:10.798Z,16.47
2019-04-01T12:44:41.394Z,15.13
2019-04-01T12:47:11.359Z,16.60
2019-04-01T12:49:40.546Z,16.73
2019-04-01T12:52:10.208Z,15.73
2019-04-01T12:54:39.420Z,17.50
2019-04-01T12:57:11.659Z,17.80
2019-04-01T12:59:41.460Z,15.17
2019-04-01T13:02:11.086Z,15.27
2019-04-01T13:04:40.322Z,14.73
2019-04-01T13:07:09.800Z,16.30
2019-04-01T13:09:42.003Z,13.53
2019-04-01T13:12:11.613Z,13.77
2019-04-01T13:14:41.510Z,12.90
2019-04-01T13:17:10.704Z,16.50
2019-04-01T13:19:40.183Z,14.40
2019-04-01T13:22:09.625Z,16.13
2019-04-01T13:24:39.010Z,15.87
2019-04-01T13:27:11.735Z,13.83
2019-04-01T13:29:41.470Z,15.87
2019-04-01T13:32:13.508Z,16.10
2019-04-01T13:34:44.001Z,16.27
2019-04-01T13:37:18.281Z,16.27
2019-04-01T13:39:51.000Z,15.40
2019-04-01T13:42:24.880Z,18.23
2019-04-01T13:44:53.268Z,16.90
2019-04-01T13:47:24.317Z,16.77
2019-04-01T13:49:54.648Z,15.63
2019-04-01T13:52:24.249Z,16.10
2019-04-01T13:54:55.748Z,16.73
2019-04-01T13:57:25.629Z,15.40
2019-04-01T13:59:56.156Z,15.80
2019-04-01T14:02:26.611Z,16.73
2019-04-01T14:05:00.474Z,17.40
2019-04-01T14:07:31.344Z,16.67
2019-04-01T14:10:01.566Z,19.13
2019-04-01T14:12:32.681Z,16.50
2019-04-01T14:15:02.075Z,18.10
2019-04-01T14:17:33.400Z,16.80
2019-04-01T14:20:02.940Z,15.33
2019-04-01T14:22:33.399Z,16.33
2019-04-01T14:25:02.731Z,15.13
2019-04-01T14:27:32.919Z,16.23
2019-04-01T14:30:03.827Z,15.83
2019-04-01T14:32:34.880Z,16.67
2019-04-01T14:35:04.681Z,16.33
2019-04-01T14:37:36.320Z,15.33
2019-04-01T14:40:08.782Z,14.83
2019-04-01T14:42:40.088Z,17.60
2019-04-01T14:45:12.280Z,15.67
2019-04-01T14:47:56.592Z,16.33
2019-04-01T14:50:16.184Z,15.40
2019-04-01T14:52:49.780Z,17.70
2019-04-01T14:55:19.379Z,15.73
2019-04-01T14:57:49.598Z,16.77
2019-04-01T15:00:20.791Z,16.87
2019-04-01T15:02:52.093Z,15.70
2019-04-01T15:05:23.489Z,18.13
2019-04-01T15:07:54.085Z,18.03
2019-04-01T15:10:24.930Z,16.77
2019-04-01T15:13:05.192Z,15.80
2019-04-01T15:15:26.549Z,16.57
2019-04-01T15:17:56.704Z,17.17
2019-04-01T15:20:26.502Z,16.13
2019-04-01T15:22:58.022Z,15.80
2019-04-01T15:25:30.943Z,16.17
2019-04-01T15:28:06.379Z,16.93
2019-04-01T15:30:35.799Z,16.20
2019-04-01T15:33:16.659Z,15.63
2019-04-01T15:35:48.801Z,15.73
2019-04-01T15:38:22.028Z,17.90
2019-04-01T15:40:53.120Z,16.60
2019-04-01T15:43:23.379Z,15.77
2019-04-01T15:45:54.299Z,15.00
2019-04-01T15:48:25.600Z,15.93
2019-04-01T15:50:57.979Z,15.80
2019-04-01T15:53:30.040Z,15.77
2019-04-01T15:56:01.923Z,16.23
2019-04-01T15:58:33.399Z,16.33
2019-04-01T16:01:05.352Z,16.30
2019-04-01T16:03:35.370Z,17.23
2019-04-01T16:06:07.780Z,16.33
2019-04-01T16:08:39.871Z,16.97
2019-04-01T16:11:09.335Z,16.17
2019-04-01T16:13:40.201Z,17.23
2019-04-01T16:16:14.167Z,16.40
2019-04-01T16:18:43.779Z,17.80
2019-04-01T16:21:13.559Z,16.57
2019-04-01T16:23:47.030Z,17.07
2019-04-01T16:26:16.920Z,17.23
2019-04-01T16:28:48.020Z,17.43
2019-04-01T16:31:24.193Z,17.07
2019-04-01T16:33:58.244Z,18.40
2019-04-01T16:36:36.060Z,18.23
2019-04-01T16:39:16.002Z,16.53
2019-04-01T16:41:52.249Z,17.90
2019-04-01T16:44:24.499Z,16.70
2019-04-01T16:47:01.063Z,19.97
2019-04-01T16:49:36.251Z,19.30
2019-04-01T16:52:15.545Z,20.53
2019-04-01T16:54:51.222Z,18.13
2019-04-01T16:57:25.519Z,20.60
2019-04-01T17:00:00.140Z,16.00
2019-04-01T17:02:36.167Z,16.47
2019-04-01T17:05:14.648Z,19.00
2019-04-01T17:07:51.285Z,18.60
2019-04-01T17:10:26.852Z,18.30
2019-04-01T17:13:04.431Z,18.37
2019-04-01T17:15:39.068Z,18.97
2019-04-01T17:18:11.040Z,19.30
2019-04-01T17:20:43.106Z,19.77
2019-04-01T17:23:14.809Z,16.70
2019-04-01T17:25:46.260Z,18.37
2019-04-01T17:28:19.360Z,18.33
2019-04-01T17:30:51.541Z,18.43
2019-04-01T17:33:26.650Z,18.13
2019-04-01T17:35:59.276Z,18.83
2019-04-01T17:38:37.165Z,20.40
2019-04-01T17:41:08.430Z,19.80
2019-04-01T17:43:39.346Z,19.80
2019-04-01T17:46:11.504Z,24.20
2019-04-01T17:48:42.264Z,18.03
2019-04-01T17:51:19.146Z,18.13
2019-04-01T17:53:51.216Z,18.77
2019-04-01T17:56:28.691Z,18.53
2019-04-01T17:59:01.665Z,17.60
2019-04-01T18:01:34.463Z,20.13
2019-04-01T18:04:09.561Z,19.57
2019-04-01T18:06:41.222Z,19.47
2019-04-01T18:09:12.105Z,19.80
2019-04-01T18:11:48.227Z,22.20
2019-04-01T18:14:30.164Z,21.30
2019-04-01T18:17:09.779Z,17.40
2019-04-01T18:19:46.381Z,18.80
2019-04-01T18:22:18.603Z,20.37
2019-04-01T18:24:58.781Z,19.93
2019-04-01T18:27:36.820Z,20.90
2019-04-01T18:30:14.301Z,20.87
2019-04-01T18:32:54.816Z,20.50
2019-04-01T18:35:27.983Z,24.13
2019-04-01T18:38:02.067Z,19.93
2019-04-01T18:40:43.606Z,24.13
2019-04-01T18:43:20.983Z,19.63
2019-04-01T18:45:56.157Z,20.93
2019-04-01T18:48:34.925Z,22.37
2019-04-01T18:51:20.768Z,22.17
2019-04-01T18:53:57.337Z,21.77
2019-04-01T18:56:30.724Z,20.07
2019-04-01T18:59:03.548Z,20.43
2019-04-01T19:01:41.880Z,20.07
2019-04-01T19:04:17.378Z,18.90
2019-04-01T19:06:56.884Z,20.33
2019-04-01T19:09:37.366Z,21.53
2019-04-01T19:12:15.020Z,22.43
2019-04-01T19:14:51.579Z,20.77
2019-04-01T19:17:32.019Z,20.27
2019-04-01T19:20:13.607Z,18.40
2019-04-01T19:22:49.473Z,23.50
2019-04-01T19:25:29.779Z,19.43
2019-04-01T19:28:09.626Z,20.13
2019-04-01T19:33:37.296Z,18.17
2019-04-01T19:36:12.360Z,21.17
2019-04-01T19:38:45.310Z,18.80
2019-04-01T19:41:24.039Z,18.43
2019-04-01T19:43:55.259Z,20.77
2019-04-01T19:46:28.546Z,19.77
2019-04-01T19:49:04.798Z,19.70
2019-04-01T19:51:39.768Z,18.70
2019-04-01T19:54:14.787Z,19.47
2019-04-01T19:56:46.999Z,23.50
2019-04-01T19:59:18.092Z,20.03
2019-04-01T20:01:49.369Z,22.63
2019-04-01T20:04:23.172Z,19.03
2019-04-01T20:06:54.702Z,20.03
2019-04-01T20:09:28.206Z,18.60
2019-04-01T20:12:01.244Z,20.37
2019-04-01T20:14:33.798Z,21.93
2019-04-01T20:17:06.266Z,20.13
2019-04-01T20:19:43.504Z,18.47
2019-04-01T20:22:15.685Z,18.73
2019-04-01T20:24:47.891Z,19.83
2019-04-01T20:27:23.420Z,19.37
2019-04-01T20:29:56.815Z,18.53
2019-04-01T20:32:30.917Z,19.07
2019-04-01T20:35:02.822Z,19.67
2019-04-01T20:37:37.301Z,19.17
2019-04-01T20:40:13.258Z,20.30
2019-04-01T20:42:46.332Z,20.37
2019-04-01T20:45:17.941Z,21.80
2019-04-01T20:47:52.058Z,18.40
2019-04-01T20:50:27.223Z,19.70
2019-04-01T20:53:01.337Z,21.17
2019-04-01T20:55:47.369Z,22.80
2019-04-01T20:58:08.560Z,19.10
2019-04-01T21:00:40.705Z,20.03
2019-04-01T21:03:15.639Z,19.63
2019-04-01T21:05:47.724Z,19.33
2019-04-01T21:08:18.663Z,21.70
2019-04-01T21:10:49.878Z,24.67
2019-04-01T21:13:22.361Z,20.83
2019-04-01T21:15:55.873Z,21.03
2019-04-01T21:18:30.220Z,19.63
2019-04-01T21:21:00.719Z,19.73
2019-04-01T21:23:33.159Z,20.80
2019-04-01T21:26:04.680Z,18.97
2019-04-01T21:28:37.495Z,18.03
2019-04-01T21:31:09.798Z,22.83
2019-04-01T21:33:44.255Z,18.37
2019-04-01T21:36:16.106Z,20.63
2019-04-01T21:38:45.939Z,19.63
2019-04-01T21:41:15.275Z,20.67
2019-04-01T21:43:45.162Z,20.50
2019-04-01T21:46:14.862Z,22.30
2019-04-01T21:48:44.514Z,18.23
2019-04-01T21:51:16.471Z,28.50
2019-04-01T21:53:45.582Z,22.83
2019-04-01T21:56:14.857Z,24.43
2019-04-01T21:58:44.494Z,21.10
2019-04-01T22:01:14.524Z,21.07
2019-04-01T22:03:44.757Z,23.27
2019-04-01T22:06:17.835Z,19.07
2019-04-01T22:08:47.097Z,19.43
2019-04-01T22:11:16.574Z,18.80
2019-04-01T22:13:47.395Z,21.37
2019-04-01T22:16:16.597Z,20.70
2019-04-01T22:18:46.698Z,23.80
2019-04-01T22:21:16.376Z,26.50
2019-04-01T22:23:48.196Z,18.87
2019-04-01T22:26:18.053Z,23.20
2019-04-01T22:28:48.479Z,21.80
2019-04-01T22:31:19.112Z,23.07
2019-04-01T22:33:49.642Z,19.27
2019-04-01T22:36:30.592Z,24.53
2019-04-01T22:38:51.181Z,21.40
2019-04-01T22:41:24.000Z,21.33
2019-04-01T22:43:54.681Z,21.00
2019-04-01T22:46:25.159Z,21.40
2019-04-01T22:48:54.598Z,21.07
2019-04-01T22:51:24.158Z,22.70
2019-04-01T22:53:54.080Z,22.10
2019-04-01T22:56:26.194Z,20.03
2019-04-01T22:58:55.979Z,21.13
2019-04-01T23:01:26.636Z,21.73
2019-04-01T23:04:00.303Z,18.83
2019-04-01T23:06:30.144Z,19.70
2019-04-01T23:09:00.095Z,20.00
2019-04-01T23:11:30.555Z,21.47
2019-04-01T23:14:00.580Z,19.73
2019-04-01T23:16:30.046Z,19.73
2019-04-01T23:18:59.761Z,19.67
2019-04-01T23:21:31.099Z,19.60
2019-04-01T23:24:02.423Z,18.47
2019-04-01T23:26:32.617Z,18.47
2019-04-01T23:29:03.095Z,22.20
2019-04-01T23:31:33.074Z,20.03
2019-04-01T23:34:04.649Z,20.03
2019-04-01T23:36:35.614Z,21.50
2019-04-01T23:39:07.476Z,20.53
2019-04-01T23:41:36.915Z,20.70
2019-04-01T23:44:06.696Z,21.43
2019-04-01T23:46:36.394Z,19.67
2019-04-01T23:49:06.655Z,21.33
2019-04-01T23:51:36.629Z,19.97
2019-04-01T23:54:07.394Z,20.87
2019-04-01T23:56:36.936Z,20.63
2019-04-01T23:59:06.976Z,18.97
